Time;durP1;ratioP1;P1;durP2;ratioP2;P2;SDS_P1;SDS_P2;PMS_P1;PMS_P2;Temp;Humidity;BMP_temperature;BMP_pressure;BME280_temperature;BME280_humidity;BME280_pressure;Samples;Min_cycle;Max_cycle;Signal;HPM_P1;HPM_P2
2021/05/16 00:01:58;;;;;;;3.05;1.15;;;;;;;18.94;48.30;99890.56;5031308;28;20052;-73
2021/05/16 00:04:25;;;;;;;3.33;1.25;;;;;;;18.92;48.28;99873.03;5014740;28;20038;-73
2021/05/16 00:06:52;;;;;;;3.60;1.20;;;;;;;18.94;48.03;99879.81;5014642;28;20120;-73
2021/05/16 00:09:20;;;;;;;3.92;1.30;;;;;;;18.93;48.18;99883.53;5032073;28;20464;-74
2021/05/16 00:11:47;;;;;;;5.22;1.48;;;;;;;18.93;48.35;99871.97;5032031;28;20400;-73
2021/05/16 00:14:13;;;;;;;4.13;1.35;;;;;;;18.91;48.23;99869.50;5031044;28;20061;-73
2021/05/16 00:16:40;;;;;;;3.85;1.30;;;;;;;18.91;48.14;99872.19;5014909;28;20125;-73
2021/05/16 00:19:08;;;;;;;5.15;1.40;;;;;;;18.91;48.31;99866.81;5014613;28;20076;-73
2021/05/16 00:21:35;;;;;;;3.80;1.38;;;;;;;18.91;48.36;99860.63;5014598;28;20046;-73
2021/05/16 00:24:02;;;;;;;3.80;1.30;;;;;;;18.91;48.21;99864.13;5032455;28;20056;-74
2021/05/16 00:26:29;;;;;;;3.78;1.30;;;;;;;18.90;48.31;99865.19;5030676;28;20128;-73
2021/05/16 00:29:04;;;;;;;3.88;1.25;;;;;;;18.92;48.33;99864.97;5030930;28;20049;-73
2021/05/16 00:31:31;;;;;;;6.05;1.40;;;;;;;18.92;47.79;99856.91;5032084;28;20050;-73
2021/05/16 00:33:58;;;;;;;3.65;1.20;;;;;;;18.91;48.19;99849.88;5031918;28;20045;-73
2021/05/16 00:36:26;;;;;;;4.47;1.27;;;;;;;18.91;47.90;99861.44;5030636;28;20038;-73
2021/05/16 00:38:56;;;;;;;3.50;1.20;;;;;;;18.93;48.06;99858.53;5030920;28;20041;-73
2021/05/16 00:41:23;;;;;;;3.88;1.30;;;;;;;18.91;48.10;99856.06;5030969;28;20096;-74
2021/05/16 00:43:50;;;;;;;3.70;1.45;;;;;;;18.91;48.10;99864.13;5029420;28;20056;-73
2021/05/16 00:46:17;;;;;;;3.97;1.23;;;;;;;18.89;48.01;99855.47;5025374;28;20045;-73
2021/05/16 00:48:47;;;;;;;5.00;1.40;;;;;;;18.91;48.27;99864.13;5031356;28;20057;-73
2021/05/16 00:51:14;;;;;;;3.97;1.35;;;;;;;18.93;47.78;99864.72;5030335;28;20045;-73
2021/05/16 00:53:42;;;;;;;3.60;1.30;;;;;;;18.91;48.06;99863.31;5031281;28;20191;-74
2021/05/16 00:56:09;;;;;;;6.03;1.50;;;;;;;18.90;48.12;99857.13;5030540;28;20045;-73
2021/05/16 00:58:36;;;;;;;4.90;1.30;;;;;;;18.88;48.23;99866.47;5014269;28;20049;-73
2021/05/16 01:01:07;;;;;;;4.80;1.50;;;;;;;18.90;48.17;99865.19;5033362;28;20041;-73
2021/05/16 01:03:34;;;;;;;;;;;;;;;18.90;47.88;99865.19;5034684;28;20426;-73
2021/05/16 01:06:02;;;;;;;7.03;1.50;;;;;;;18.91;47.80;99857.94;5035014;28;19925;-73
2021/05/16 01:08:35;;;;;;;6.18;1.42;;;;;;;18.90;47.75;99865.19;5035329;28;20049;-73
2021/05/16 01:11:02;;;;;;;5.82;1.45;;;;;;;18.89;48.18;99863.53;5033996;28;20088;-73
2021/05/16 01:13:29;;;;;;;5.63;1.60;;;;;;;18.90;47.92;99861.66;5035463;28;20037;-73
2021/05/16 01:15:56;;;;;;;5.55;1.50;;;;;;;18.90;47.95;99861.66;5033429;28;20045;-73
2021/05/16 01:18:23;;;;;;;4.28;1.50;;;;;;;18.89;48.21;99860.03;5035241;28;20037;-73
2021/05/16 01:20:51;;;;;;;6.00;1.58;;;;;;;18.88;47.85;99858.41;5034973;28;20057;-73
2021/05/16 01:23:44;;;;;;;5.53;1.60;;;;;;;18.87;48.15;99857.59;5034831;28;20498;-73
2021/05/16 01:26:15;;;;;;;4.43;1.50;;;;;;;18.90;47.95;99861.66;5033803;28;20033;-73
2021/05/16 01:28:44;;;;;;;4.30;1.30;;;;;;;18.88;47.83;99861.91;5035206;28;20045;-73
2021/05/16 01:31:12;;;;;;;6.00;1.60;;;;;;;18.86;47.91;99865.88;5033955;28;20033;-73
2021/05/16 01:33:39;;;;;;;6.47;1.75;;;;;;;18.89;47.97;99868.09;5001181;28;20060;-73
2021/05/16 01:36:06;;;;;;;5.50;1.50;;;;;;;18.89;48.04;99868.09;5034497;28;20041;-73
2021/05/16 01:38:35;;;;;;;5.22;1.40;;;;;;;18.88;47.72;99861.09;5034335;28;20397;-73
2021/05/16 01:41:02;;;;;;;2.95;1.17;;;;;;;18.90;47.95;99867.88;5033684;28;20057;-73
2021/05/16 01:43:37;;;;;;;6.45;1.42;;;;;;;18.89;47.86;99876.16;5017844;28;20053;-73
2021/05/16 01:46:04;;;;;;;5.75;1.45;;;;;;;18.90;48.06;99867.03;5033574;28;20490;-73
2021/05/16 01:48:31;;;;;;;5.22;1.58;;;;;;;18.87;47.85;99873.72;5033503;28;20052;-73
2021/05/16 01:50:59;;;;;;;6.38;1.60;;;;;;;18.87;48.03;99875.59;5034528;28;20045;-73
2021/05/16 01:53:27;;;;;;;2.88;1.10;;;;;;;18.80;47.52;99851.47;5019984;28;20097;-73
2021/05/16 01:55:54;;;;;;;6.60;1.88;;;;;;;18.88;47.73;99861.91;5016722;28;20036;-73
2021/05/16 01:58:21;;;;;;;5.95;1.70;;;;;;;18.88;47.50;99866.47;5034356;28;20042;-73
2021/05/16 02:00:49;;;;;;;6.03;1.60;;;;;;;18.87;47.84;99868.34;5033137;28;20069;-73
2021/05/16 02:03:36;;;;;;;7.05;1.70;;;;;;;18.86;47.82;99865.88;5033076;28;20076;-73
2021/05/16 02:06:05;;;;;;;5.97;1.58;;;;;;;18.84;47.75;99863.41;5032657;28;20068;-73
2021/05/16 02:08:34;;;;;;;4.97;1.50;;;;;;;18.85;47.42;99857.00;5001206;28;20041;-73
2021/05/16 02:11:04;;;;;;;6.18;1.70;;;;;;;18.87;47.91;99864.84;5000650;28;20073;-74
2021/05/16 02:13:38;;;;;;;6.03;1.70;;;;;;;18.86;47.74;99857.81;5017461;28;20049;-73
2021/05/16 02:16:11;;;;;;;4.68;1.50;;;;;;;18.89;47.72;99868.09;5032303;28;20068;-73
2021/05/16 02:18:40;;;;;;;5.55;1.52;;;;;;;18.88;47.53;99861.91;5033027;28;20050;-74
2021/05/16 02:21:12;;;;;;;5.80;1.60;;;;;;;18.89;47.41;99866.22;5033784;28;20453;-73
2021/05/16 02:23:42;;;;;;;5.22;1.45;;;;;;;18.88;47.58;99867.28;5032653;28;20068;-74
2021/05/16 02:26:13;;;;;;;5.90;1.70;;;;;;;18.87;47.59;99860.28;5033670;28;20053;-73
2021/05/16 02:28:41;;;;;;;4.72;1.38;;;;;;;18.89;47.54;99868.09;5016276;28;20051;-73
2021/05/16 02:31:14;;;;;;;6.05;1.52;;;;;;;18.86;47.73;99866.69;5016078;28;20049;-73
2021/05/16 02:33:42;;;;;;;5.03;1.55;;;;;;;18.86;47.76;99872.06;4989631;28;20045;-73
2021/05/16 02:36:10;;;;;;;7.03;1.80;;;;;;;18.86;47.80;99864.00;5031793;28;20047;-73
2021/05/16 02:38:38;;;;;;;5.68;1.48;;;;;;;18.88;47.38;99853.03;5010499;28;20037;-73
2021/05/16 02:41:05;;;;;;;5.90;1.60;;;;;;;18.78;47.67;99851.69;5006544;28;20099;-73
2021/05/16 02:43:32;;;;;;;7.32;1.80;;;;;;;18.85;47.56;99859.69;5032495;28;20081;-73
2021/05/16 02:45:58;;;;;;;7.00;1.90;;;;;;;18.86;47.66;99865.88;5037766;28;20128;-73
2021/05/16 02:48:25;;;;;;;6.40;1.65;;;;;;;18.85;47.36;99862.38;5037507;28;20080;-73
2021/05/16 02:50:52;;;;;;;4.57;1.42;;;;;;;18.86;47.55;99858.63;5014912;28;20034;-73
2021/05/16 02:53:25;;;;;;;7.05;1.70;;;;;;;18.86;47.69;99863.19;5013265;28;20052;-73
2021/05/16 02:55:58;;;;;;;6.68;1.70;;;;;;;18.84;47.69;99857.22;5015193;28;20046;-74
2021/05/16 02:58:25;;;;;;;6.10;1.73;;;;;;;18.83;47.68;99859.09;5033315;28;20041;-73
2021/05/16 03:00:56;;;;;;;8.57;1.77;;;;;;;18.86;47.30;99855.13;5032300;28;20130;-73
2021/05/16 03:03:23;;;;;;;5.63;1.80;;;;;;;18.86;47.32;99855.94;5031865;28;20045;-73
2021/05/16 03:05:55;;;;;;;6.45;1.70;;;;;;;18.84;47.26;99849.97;4999730;28;20106;-73
2021/05/16 03:08:25;;;;;;;6.97;1.92;;;;;;;18.87;47.00;99859.47;5015930;28;20459;-73
2021/05/16 03:10:52;;;;;;;4.88;1.30;;;;;;;18.87;47.43;99856.78;5016017;28;20402;-73
2021/05/16 03:13:19;;;;;;;6.15;1.63;;;;;;;18.87;47.20;99862.16;5031743;28;20045;-73
2021/05/16 03:15:46;;;;;;;5.97;1.60;;;;;;;18.87;47.15;99862.97;5015050;28;20041;-73
2021/05/16 03:18:13;;;;;;;6.68;1.85;;;;;;;18.77;47.16;99849.22;5031653;28;20129;-73
2021/05/16 03:20:44;;;;;;;6.22;1.60;;;;;;;18.85;47.51;99850.81;5015581;28;20073;-73
2021/05/16 03:23:12;;;;;;;6.65;1.60;;;;;;;18.85;47.15;99864.25;5031153;28;20052;-73
2021/05/16 03:25:40;;;;;;;6.57;1.65;;;;;;;18.85;47.59;99861.56;4999465;28;20054;-73
2021/05/16 03:28:07;;;;;;;6.20;1.63;;;;;;;18.86;47.26;99857.81;5031826;28;20045;-73
2021/05/16 03:30:33;;;;;;;6.22;1.70;;;;;;;18.85;47.13;99859.69;5031739;28;20045;-73
2021/05/16 03:33:01;;;;;;;5.85;1.50;;;;;;;18.85;47.00;99861.56;5031782;28;20490;-73
2021/05/16 03:35:27;;;;;;;5.22;1.40;;;;;;;18.77;46.77;99863.50;5017210;28;20061;-73
2021/05/16 03:37:54;;;;;;;6.22;1.70;;;;;;;18.86;47.10;99857.81;5015056;28;20095;-73
2021/05/16 03:40:21;;;;;;;6.65;1.88;;;;;;;18.84;47.34;99868.78;5032934;28;20103;-73
2021/05/16 03:42:49;;;;;;;6.13;1.70;;;;;;;18.85;47.14;99861.56;5031627;28;20076;-73
2021/05/16 03:45:16;;;;;;;5.07;1.70;;;;;;;18.85;47.18;99862.38;5015380;28;20498;-73
2021/05/16 03:47:43;;;;;;;6.40;1.70;;;;;;;18.86;46.96;99866.69;5031212;28;20045;-73
2021/05/16 03:50:11;;;;;;;6.25;1.63;;;;;;;18.80;47.06;99864.91;5030769;28;20432;-73
2021/05/16 03:52:39;;;;;;;5.85;1.67;;;;;;;18.84;47.27;99873.34;5030896;28;20049;-73
2021/05/16 03:55:07;;;;;;;5.35;1.55;;;;;;;18.84;47.15;99879.53;5032576;28;20128;-73
2021/05/16 03:57:34;;;;;;;5.50;1.60;;;;;;;18.83;47.15;99872.53;5032800;28;20471;-73
2021/05/16 04:00:03;;;;;;;7.22;1.60;;;;;;;18.82;47.12;99870.88;5032633;28;20045;-73
2021/05/16 04:02:40;;;;;;;6.40;1.60;;;;;;;18.82;47.20;99880.81;5032522;28;20049;-73
2021/05/16 04:05:07;;;;;;;6.45;1.65;;;;;;;18.76;46.97;99869.09;5030801;28;20486;-73
2021/05/16 04:07:34;;;;;;;5.55;1.52;;;;;;;18.84;47.02;99884.09;5014728;28;20048;-73
2021/05/16 04:10:01;;;;;;;4.68;1.67;;;;;;;18.85;46.84;99875.00;5032418;28;20096;-73
2021/05/16 04:12:28;;;;;;;7.45;1.70;;;;;;;18.82;47.28;99876.25;5032411;28;20402;-73
2021/05/16 04:14:54;;;;;;;7.13;1.50;;;;;;;18.73;47.21;99866.84;5014756;28;20037;-74
2021/05/16 04:17:21;;;;;;;5.95;1.63;;;;;;;18.83;46.87;99879.75;5014468;28;20418;-73
2021/05/16 04:19:48;;;;;;;6.47;1.60;;;;;;;18.83;47.15;99875.22;5031951;28;20408;-73
2021/05/16 04:22:15;;;;;;;6.05;1.77;;;;;;;18.83;47.04;99874.38;5032327;28;20040;-73
2021/05/16 04:24:42;;;;;;;7.07;1.85;;;;;;;18.84;47.16;99881.41;5031017;28;20053;-73
2021/05/16 04:27:08;;;;;;;6.63;1.77;;;;;;;18.82;47.41;99883.50;5031092;28;20044;-74
2021/05/16 04:29:35;;;;;;;5.63;1.52;;;;;;;18.84;47.11;99884.09;5031670;28;20103;-73
2021/05/16 04:32:02;;;;;;;5.50;1.60;;;;;;;18.84;46.81;99884.91;5032023;28;20050;-73
2021/05/16 04:34:29;;;;;;;5.45;1.50;;;;;;;18.77;47.19;99876.09;5032740;28;20069;-73
2021/05/16 04:36:56;;;;;;;6.20;1.70;;;;;;;18.85;46.97;99880.38;5017988;28;20042;-73
2021/05/16 04:39:23;;;;;;;4.93;1.67;;;;;;;18.84;46.89;99887.59;5035964;28;20097;-74
2021/05/16 04:41:50;;;;;;;7.35;1.75;;;;;;;18.84;46.72;99884.91;5034878;28;20073;-73
2021/05/16 04:44:16;;;;;;;5.45;1.58;;;;;;;18.84;47.10;99887.59;5026187;28;20050;-74
2021/05/16 04:46:43;;;;;;;5.93;1.80;;;;;;;18.86;46.63;99882.81;5038973;28;20047;-73
2021/05/16 04:49:11;;;;;;;5.43;1.50;;;;;;;18.86;46.91;99887.38;5038705;28;20041;-73
2021/05/16 04:51:38;;;;;;;6.70;1.70;;;;;;;18.86;46.99;99892.75;5034081;28;20052;-74
2021/05/16 04:54:05;;;;;;;6.22;1.70;;;;;;;18.86;46.79;99888.19;5035561;28;20072;-73
2021/05/16 04:56:32;;;;;;;5.90;1.70;;;;;;;18.86;46.84;99895.44;5035284;28;20103;-73
2021/05/16 04:58:59;;;;;;;7.40;1.88;;;;;;;18.86;46.81;99895.44;5035374;28;20095;-73
2021/05/16 05:01:26;;;;;;;6.15;1.58;;;;;;;18.86;46.87;99901.59;5034346;28;20124;-73
2021/05/16 05:03:55;;;;;;;6.40;1.70;;;;;;;18.85;47.00;99901.88;5018146;28;20390;-74
2021/05/16 05:06:23;;;;;;;8.48;2.00;;;;;;;18.84;46.99;99895.66;5033928;28;20057;-73
2021/05/16 05:08:50;;;;;;;6.07;1.70;;;;;;;18.84;46.91;99895.66;5034264;28;20410;-73
2021/05/16 05:11:17;;;;;;;7.55;1.70;;;;;;;18.84;46.91;99898.34;5035022;28;20065;-73
2021/05/16 05:13:43;;;;;;;6.55;1.67;;;;;;;18.86;47.05;99900.81;5033978;28;20071;-73
2021/05/16 05:16:10;;;;;;;6.80;1.90;;;;;;;18.86;46.84;99901.59;5035085;28;20099;-74
2021/05/16 05:18:37;;;;;;;6.95;1.90;;;;;;;18.84;46.84;99897.53;5035212;28;20041;-74
2021/05/16 05:21:05;;;;;;;5.45;1.55;;;;;;;18.86;46.91;99896.25;5035292;28;20065;-73
2021/05/16 05:23:32;;;;;;;5.20;1.70;;;;;;;18.87;46.74;99889.03;5043245;28;20050;-73
2021/05/16 05:25:59;;;;;;;6.95;1.80;;;;;;;18.88;46.83;99896.00;5017461;28;20053;-73
2021/05/16 05:28:26;;;;;;;5.57;1.58;;;;;;;18.85;46.92;99897.31;5035107;28;20125;-73
2021/05/16 05:30:52;;;;;;;7.25;1.83;;;;;;;18.85;46.80;99891.94;5033789;28;20049;-73
2021/05/16 05:33:19;;;;;;;5.78;1.60;;;;;;;18.76;46.97;99880.66;5033712;28;20154;-74
2021/05/16 05:35:46;;;;;;;4.80;1.60;;;;;;;18.86;46.97;99904.28;5033421;28;20077;-73
2021/05/16 05:38:13;;;;;;;7.43;1.90;;;;;;;18.82;47.17;99896.94;5034580;28;20133;-73
2021/05/16 05:40:40;;;;;;;6.63;1.73;;;;;;;18.87;47.11;99907.81;5001096;28;20050;-74
2021/05/16 05:43:08;;;;;;;6.93;1.65;;;;;;;18.87;46.85;99900.56;5033734;28;20081;-74
2021/05/16 05:45:34;;;;;;;5.50;1.50;;;;;;;18.87;46.65;99905.94;5033150;28;20069;-73
2021/05/16 05:48:02;;;;;;;4.93;1.42;;;;;;;18.87;46.99;99905.94;5033459;28;20401;-73
2021/05/16 05:50:29;;;;;;;5.35;1.60;;;;;;;18.87;46.99;99903.25;5034385;28;20061;-73
2021/05/16 05:52:59;;;;;;;5.43;1.60;;;;;;;18.86;47.10;99900.81;5033932;28;20049;-73
2021/05/16 05:55:25;;;;;;;5.68;1.50;;;;;;;18.86;46.90;99917.72;5033718;28;20037;-73
2021/05/16 05:57:52;;;;;;;5.15;1.50;;;;;;;18.86;47.17;99908.88;5033384;28;20116;-73
2021/05/16 06:00:19;;;;;;;5.00;1.55;;;;;;;18.86;47.26;99914.22;5034889;28;20141;-73
2021/05/16 06:02:46;;;;;;;4.82;1.55;;;;;;;18.87;46.80;99911.31;5034063;28;20049;-73
2021/05/16 06:05:13;;;;;;;5.63;1.60;;;;;;;18.86;47.21;99919.59;5034556;28;20506;-73
2021/05/16 06:07:39;;;;;;;5.47;1.52;;;;;;;18.85;47.09;99912.63;5033244;28;20045;-73
2021/05/16 06:10:06;;;;;;;5.65;1.63;;;;;;;18.85;47.34;99918.00;5033630;28;20072;-74
2021/05/16 06:12:33;;;;;;;6.68;1.80;;;;;;;18.82;47.12;99927.31;5034788;28;20045;-74
2021/05/16 06:15:00;;;;;;;6.20;1.67;;;;;;;18.84;47.32;99924.41;5017016;28;20041;-73
2021/05/16 06:17:27;;;;;;;6.13;1.60;;;;;;;18.83;47.39;99922.75;5033250;28;20037;-73
2021/05/16 06:19:54;;;;;;;6.95;1.85;;;;;;;18.84;47.17;99927.09;5033279;28;20051;-73
2021/05/16 06:22:21;;;;;;;5.65;1.60;;;;;;;18.75;47.10;99913.91;5033045;28;20041;-73
2021/05/16 06:24:48;;;;;;;6.68;1.45;;;;;;;18.82;47.27;99924.63;5033275;28;20049;-73
2021/05/16 06:27:14;;;;;;;5.15;1.50;;;;;;;18.82;47.22;99923.81;5034201;28;20072;-73
2021/05/16 06:29:41;;;;;;;6.25;1.70;;;;;;;18.82;47.30;99935.38;5016647;28;20042;-73
2021/05/16 06:32:10;;;;;;;6.25;1.80;;;;;;;18.84;47.13;99935.94;5034335;28;20041;-73
2021/05/16 06:34:37;;;;;;;4.85;1.60;;;;;;;18.76;47.19;99923.63;5033874;28;20041;-73
2021/05/16 06:37:05;;;;;;;5.22;1.55;;;;;;;18.85;47.19;99934.09;5016392;28;20073;-73
2021/05/16 06:39:32;;;;;;;6.38;1.70;;;;;;;18.86;46.90;99933.84;5034056;28;20049;-74
2021/05/16 06:41:59;;;;;;;6.75;1.73;;;;;;;18.84;47.03;99932.44;5033963;28;20045;-73
2021/05/16 06:44:26;;;;;;;6.55;1.55;;;;;;;18.78;47.05;99926.09;5032823;28;20112;-74
2021/05/16 06:46:53;;;;;;;4.82;1.45;;;;;;;18.85;46.97;99934.09;4998490;28;20526;-73
2021/05/16 06:49:20;;;;;;;8.00;1.70;;;;;;;18.85;46.79;99932.22;5022585;28;20068;-73
2021/05/16 06:51:47;;;;;;;6.00;1.80;;;;;;;18.85;47.25;99934.91;5031449;28;20088;-73
2021/05/16 06:54:14;;;;;;;6.95;1.73;;;;;;;18.85;47.31;99945.66;5015945;28;20443;-73
2021/05/16 06:56:41;;;;;;;5.85;1.52;;;;;;;18.85;46.85;99934.09;5033492;28;20076;-73
2021/05/16 06:59:07;;;;;;;6.72;1.80;;;;;;;18.86;47.46;99935.72;5032349;28;20045;-73
2021/05/16 07:01:34;;;;;;;4.90;1.63;;;;;;;18.84;47.49;99937.81;5032097;28;20050;-73
2021/05/16 07:04:02;;;;;;;6.72;1.70;;;;;;;18.84;47.17;99932.44;4980461;28;20046;-73
2021/05/16 07:06:29;;;;;;;4.90;1.52;;;;;;;18.84;46.93;99933.25;4996284;28;20376;-73
2021/05/16 07:08:56;;;;;;;4.72;1.35;;;;;;;18.84;47.54;99937.81;5013819;28;20069;-74
2021/05/16 07:11:22;;;;;;;5.65;1.98;;;;;;;18.87;47.11;99940.88;5012591;28;20511;-73
2021/05/16 07:13:50;;;;;;;5.75;1.70;;;;;;;18.88;47.13;99933.63;5013651;28;20513;-73
2021/05/16 07:16:16;;;;;;;4.80;1.70;;;;;;;18.87;47.17;99945.44;5013188;28;20097;-74
2021/05/16 07:18:44;;;;;;;5.60;1.50;;;;;;;18.88;46.86;99939.00;5013598;28;20048;-73
2021/05/16 07:21:12;;;;;;;5.53;1.65;;;;;;;18.89;47.22;99941.47;5012188;28;20049;-73
2021/05/16 07:23:39;;;;;;;5.47;1.77;;;;;;;18.90;47.00;99948.50;5013479;28;20495;-73
2021/05/16 07:26:06;;;;;;;6.82;1.70;;;;;;;18.89;46.87;99946.84;5013369;28;20507;-73
2021/05/16 07:28:33;;;;;;;5.78;1.60;;;;;;;18.90;47.21;99947.66;4984312;28;20050;-73
2021/05/16 07:30:59;;;;;;;4.90;1.60;;;;;;;18.91;47.38;99952.00;5012314;28;20050;-73
2021/05/16 07:33:26;;;;;;;5.40;1.70;;;;;;;18.89;47.40;99946.84;5006887;28;20056;-72
2021/05/16 07:35:53;;;;;;;4.57;1.42;;;;;;;18.92;47.35;99951.78;5031551;28;20140;-73
2021/05/16 07:38:21;;;;;;;5.68;1.52;;;;;;;18.90;47.36;99951.19;5031953;28;20091;-72
2021/05/16 07:40:48;;;;;;;5.50;1.70;;;;;;;18.91;47.33;99952.81;5032108;28;20073;-72
2021/05/16 07:43:14;;;;;;;6.40;1.63;;;;;;;18.88;47.56;99952.44;5032944;28;20041;-73
2021/05/16 07:45:42;;;;;;;5.72;1.42;;;;;;;18.82;47.36;99945.31;5015482;28;20049;-73
2021/05/16 07:48:09;;;;;;;4.00;1.48;;;;;;;18.91;47.48;99954.69;5031813;28;20051;-72
2021/05/16 07:50:36;;;;;;;7.03;1.80;;;;;;;18.92;47.32;99967.09;5031373;28;20042;-73
2021/05/16 07:53:04;;;;;;;6.75;1.90;;;;;;;18.91;47.47;99958.19;5032597;28;20536;-73
2021/05/16 07:55:31;;;;;;;4.97;1.58;;;;;;;18.92;47.56;99959.03;5032634;28;20128;-72
2021/05/16 07:57:57;;;;;;;4.60;1.52;;;;;;;18.91;47.77;99954.69;5031182;28;20061;-72
2021/05/16 08:00:24;;;;;;;5.45;1.70;;;;;;;18.91;47.40;99947.44;5032738;28;20057;-72
2021/05/16 08:02:51;;;;;;;4.68;1.58;;;;;;;18.89;47.58;99946.84;5032855;28;20128;-72
2021/05/16 08:05:18;;;;;;;5.63;1.70;;;;;;;18.93;47.50;99955.28;5031415;28;20068;-73
2021/05/16 08:07:45;;;;;;;7.47;1.80;;;;;;;18.92;47.50;99957.16;5015118;28;20085;-72
2021/05/16 08:10:12;;;;;;;5.13;1.60;;;;;;;18.94;47.21;99944.28;5002637;28;20050;-72
2021/05/16 08:12:38;;;;;;;5.10;1.65;;;;;;;18.94;47.29;99946.19;5036809;28;20180;-72
2021/05/16 08:15:07;;;;;;;5.82;1.70;;;;;;;18.94;47.40;99943.47;5035742;28;20045;-72
2021/05/16 08:17:34;;;;;;;5.85;1.55;;;;;;;18.95;47.49;99947.78;5036653;28;20124;-72
2021/05/16 08:20:04;;;;;;;4.63;1.48;;;;;;;18.97;47.07;99951.06;5019457;28;20069;-72
2021/05/16 08:22:31;;;;;;;5.50;1.70;;;;;;;18.95;47.49;99951.28;5035390;28;20037;-72
2021/05/16 08:24:58;;;;;;;5.32;1.42;;;;;;;18.97;47.48;99943.00;5035151;28;20045;-73
2021/05/16 08:27:25;;;;;;;6.38;1.50;;;;;;;18.96;47.37;99952.94;5035336;28;20124;-72
2021/05/16 08:29:52;;;;;;;6.32;1.60;;;;;;;18.95;47.60;99945.09;5019049;28;20038;-73
2021/05/16 08:32:19;;;;;;;6.80;1.83;;;;;;;18.97;47.52;99951.06;5035240;28;20046;-72
2021/05/16 08:34:46;;;;;;;4.80;1.50;;;;;;;18.91;47.38;99930.50;5035176;28;20096;-73
2021/05/16 08:37:14;;;;;;;6.45;1.70;;;;;;;18.97;47.49;99938.47;5018655;28;20124;-72
2021/05/16 08:39:41;;;;;;;7.10;1.70;;;;;;;19.00;47.53;99942.56;5034839;28;20049;-73
2021/05/16 08:42:09;;;;;;;5.43;1.70;;;;;;;19.01;47.43;99938.00;5035399;28;20045;-72
2021/05/16 08:44:36;;;;;;;5.88;1.60;;;;;;;19.01;47.37;99946.91;5036576;28;20049;-72
2021/05/16 08:47:06;;;;;;;5.53;1.75;;;;;;;19.00;47.67;99942.56;5036275;28;20061;-73
2021/05/16 08:49:34;;;;;;;6.18;1.77;;;;;;;19.02;47.39;99936.97;5048769;28;20045;-74
2021/05/16 08:52:01;;;;;;;5.03;1.40;;;;;;;19.01;47.35;99938.84;5051339;28;20041;-74
2021/05/16 08:54:28;;;;;;;7.00;1.70;;;;;;;19.04;47.34;99932.97;5034843;28;20514;-74
2021/05/16 08:56:56;;;;;;;6.47;1.80;;;;;;;19.04;47.38;99937.53;5034792;28;20401;-74
2021/05/16 08:59:24;;;;;;;8.35;2.00;;;;;;;19.03;47.28;99928.66;5036149;28;20498;-73
2021/05/16 09:01:57;;;;;;;4.97;1.67;;;;;;;19.04;47.19;99922.22;5035761;28;20045;-73
2021/05/16 09:04:33;;;;;;;6.63;1.70;;;;;;;19.06;47.16;99922.81;5034845;28;20136;-73
2021/05/16 09:07:01;;;;;;;5.10;1.65;;;;;;;19.06;47.41;99924.69;5034429;28;20050;-73
2021/05/16 09:12:12;;;;;;;6.32;1.70;;;;;;;19.05;47.48;99933.81;5053021;28;20731;-72
2021/05/16 09:14:45;;;;;;;5.22;1.75;;;;;;;19.04;47.54;99932.97;5032731;28;20525;-73
2021/05/16 09:17:33;;;;;;;6.20;1.60;;;;;;;19.05;47.24;99933.81;5032144;28;20072;-72
2021/05/16 09:20:04;;;;;;;6.35;1.55;;;;;;;19.04;47.58;99932.16;5016475;28;20048;-72
2021/05/16 09:22:43;;;;;;;3.80;1.50;;;;;;;18.96;47.31;99925.25;5044785;28;20042;-72
2021/05/16 09:25:16;;;;;;;6.05;1.80;;;;;;;18.99;47.55;99955.19;4999626;28;20053;-72
2021/05/16 09:27:46;;;;;;;4.63;1.63;;;;;;;18.99;47.28;99968.63;5043757;28;20091;-72
2021/05/16 09:30:23;;;;;;;5.72;1.75;;;;;;;18.97;47.34;99957.28;5048474;28;20072;-72
2021/05/16 09:35:42;;;;;;;4.45;1.60;;;;;;;18.99;47.47;99944.44;5054286;27;20350;-72
2021/05/16 09:38:13;;;;;;;;;;;;;;;19.02;47.33;99940.47;5070310;28;20068;-72
2021/05/16 09:40:46;;;;;;;5.60;1.63;;;;;;;19.02;47.46;99936.97;5069888;28;20003;-73
2021/05/16 09:43:17;;;;;;;5.20;1.70;;;;;;;19.03;47.45;99942.09;5058839;28;20052;-73
2021/05/16 09:45:54;;;;;;;6.70;1.70;;;;;;;19.06;47.24;99940.81;5052370;28;20091;-72
2021/05/16 09:48:28;;;;;;;5.63;1.60;;;;;;;19.07;47.18;99937.91;5037949;28;20110;-73
2021/05/16 09:51:21;;;;;;;6.20;1.70;;;;;;;19.09;47.34;99930.44;5003329;28;20045;-72
2021/05/16 09:54:07;;;;;;;4.65;1.52;;;;;;;19.13;47.02;99936.97;5067802;28;20052;-73
2021/05/16 09:56:39;;;;;;;4.57;1.60;;;;;;;19.15;47.08;99934.06;5069175;28;20451;-72
2021/05/16 09:59:08;;;;;;;8.43;1.77;;;;;;;19.18;47.11;99931.75;5053227;28;20041;-73
2021/05/16 10:01:37;;;;;;;6.05;1.70;;;;;;;19.19;47.02;99924.47;5054602;28;20488;-73
2021/05/16 10:04:06;;;;;;;4.70;1.55;;;;;;;19.12;47.32;99915.72;5032649;28;20072;-72
2021/05/16 10:06:34;;;;;;;5.85;1.73;;;;;;;19.09;47.02;99922.38;5051791;28;20157;-72
2021/05/16 10:09:02;;;;;;;5.30;1.50;;;;;;;19.06;47.43;99919.31;5029658;28;20053;-72
2021/05/16 10:11:30;;;;;;;6.45;1.60;;;;;;;19.07;47.31;99934.41;5044878;28;20052;-73
2021/05/16 10:14:02;;;;;;;6.68;1.73;;;;;;;19.08;47.24;99926.13;5028218;28;20041;-72
2021/05/16 10:16:37;;;;;;;4.78;1.60;;;;;;;19.09;47.36;99919.69;5028655;28;20049;-72
2021/05/16 10:19:04;;;;;;;5.75;1.58;;;;;;;19.13;47.26;99925.41;5029450;28;20046;-72
2021/05/16 10:21:31;;;;;;;6.88;1.90;;;;;;;19.17;47.15;99937.34;5029029;28;20051;-73
2021/05/16 10:24:15;;;;;;;9.13;1.48;;;;;;;19.16;47.08;99925.78;5029470;28;20038;-72
2021/05/16 10:26:44;;;;;;;6.75;1.60;;;;;;;19.12;47.21;99919.22;5028094;28;20046;-72
2021/05/16 10:29:15;;;;;;;6.93;1.80;;;;;;;19.12;47.22;99903.09;5032788;28;20041;-72
2021/05/16 10:31:47;;;;;;;10.80;2.13;;;;;;;19.13;47.43;99898.53;5047572;28;20076;-72
2021/05/16 10:34:39;;;;;;;6.43;1.52;;;;;;;19.15;47.18;99894.56;5047578;28;20042;-72
2021/05/16 10:37:06;;;;;;;5.38;1.50;;;;;;;19.23;46.88;99892.56;5047123;28;20041;-72
2021/05/16 10:42:21;;;;;;;7.95;1.50;;;;;;;19.28;46.84;99881.94;5109287;27;20366;-72
2021/05/16 10:45:09;;;;;;;6.00;1.50;;;;;;;19.30;46.91;99874.47;5074089;28;20078;-73
2021/05/16 10:50:28;;;;;;;5.25;1.40;;;;;;;19.38;45.37;99863.38;5087303;28;20363;-72
2021/05/16 10:53:09;;;;;;;6.65;1.42;;;;;;;19.39;45.60;99865.00;5060136;28;20062;-72
2021/05/16 10:55:40;;;;;;;5.80;1.67;;;;;;;19.28;45.36;99841.63;5039217;28;20033;-72
2021/05/16 10:58:32;;;;;;;14.05;5.30;;;;;;;19.28;45.44;99852.38;5072744;28;20474;-72
2021/05/16 11:01:01;;;;;;;18.58;10.95;;;;;;;19.30;45.61;99853.81;5075176;28;20036;-72
2021/05/16 11:03:57;;;;;;;22.60;12.52;;;;;;;19.33;45.61;99856.00;5078016;28;20066;-71
2021/05/16 11:09:25;;;;;;;25.73;17.33;;;;;;;19.30;45.62;99855.66;5138475;27;20760;-71
2021/05/16 11:11:54;;;;;;;26.75;17.30;;;;;;;19.31;45.61;99843.84;5095209;28;20043;-71
2021/05/16 11:14:25;;;;;;;27.77;14.52;;;;;;;19.32;45.17;99846.31;5127567;28;20043;-71
2021/05/16 11:16:58;;;;;;;22.85;13.50;;;;;;;19.31;45.42;99849.22;5109967;28;20035;-72
2021/05/16 11:19:28;;;;;;;22.33;14.68;;;;;;;19.26;44.54;99843.72;5107456;28;20130;-71
2021/05/16 11:21:56;;;;;;;24.65;14.48;;;;;;;19.22;44.36;99843.38;5094809;28;20185;-72
2021/05/16 11:24:51;;;;;;;23.08;14.05;;;;;;;19.28;43.79;99841.63;5079641;28;20047;-72
2021/05/16 11:27:24;;;;;;;22.23;12.40;;;;;;;19.31;43.70;99838.47;5085542;28;20502;-72
2021/05/16 11:29:52;;;;;;;;;;;;;;;19.33;42.88;99833.69;5077067;28;20420;-71
2021/05/16 11:32:48;;;;;;;24.23;11.57;;;;;;;19.27;41.96;99829.25;5075469;28;20323;-72
2021/05/16 11:35:29;;;;;;;25.70;10.93;;;;;;;19.21;42.42;99839.06;5111723;28;20060;-72
2021/05/16 11:42:42;;;;;;;15.57;8.80;;;;;;;19.24;41.52;99824.31;5112441;28;20434;-73
2021/05/16 11:45:10;;;;;;;16.65;7.30;;;;;;;19.26;41.62;99824.91;5127785;28;20047;-72
2021/05/16 11:56:16;;;;;;;17.08;7.05;;;;;;;19.43;41.85;99815.09;5094068;28;20063;-73
2021/05/16 11:58:54;;;;;;;17.70;6.57;;;;;;;19.35;41.80;99810.88;5096353;28;20065;-72
2021/05/16 12:01:55;;;;;;;12.20;5.50;;;;;;;19.23;41.69;99811.94;5112344;28;20048;-73
2021/05/16 12:04:50;;;;;;;11.18;4.80;;;;;;;19.18;41.60;99809.94;5078870;28;20051;-73
2021/05/16 12:07:29;;;;;;;12.13;5.00;;;;;;;19.13;42.25;99807.13;5074687;28;20526;-73
2021/05/16 12:10:04;;;;;;;12.05;4.57;;;;;;;19.12;42.07;99800.16;5075593;28;20043;-72
2021/05/16 12:12:31;;;;;;;11.43;4.68;;;;;;;19.10;41.99;99804.91;5106904;28;20039;-72